Pagrindinis puslapis
METAR-TAF:

METAR-TAF

Oro uostai :

Rio Brankas, Akrė, Brazilija

platuma: 10-00S, ilguma: 067-48W, Aukštis: 142 m

Dabartinis oras

Ataskaita buvo paskelbta 1 valandą ir 7 minutes, ne 21:00 UTC
Vėjas 8 kt iš Pietų/Pietvakarių
Temperatūra 28°C
Drėgmė 62%
Slėgis 1008 hPa
Matomumas 10 km arba daugiau
Išsisklaidę debesys ne aukštis 3300 ft
Mažai debesys ne aukštis 3500 ft, aukštai iškilę kamuoliniai debesys.

METAR: SBRB 162100Z 21008KT 9999 SCT033 FEW035TCU 28/20 Q1008 RETS

Laikas: 17:07 (22:07 UTC)

Prognozė

Ataskaita buvo paskelbta 5 valandos ir 37 minutes, ne 16:30 UTC
Prognozė galioja nuo 16 metu 18 UTC su 17 metu 06 UTC
Vėjas 7 kt iš Šiaurės Vakarų
Matomumas: 8000 m
Išsisklaidę debesys ne aukštis 3500 ft
Tapsmas
nuo 16 metu 22 UTC su 16 metu 23 UTC
Vėjas 5 kt iš Vakarų
Tapsmas
nuo 17 metu 02 UTC su 17 metu 04 UTC
Vėjas 5 kt iš Šiaurės
Mažai debesys ne aukštis 3000 ft

TAF: SBRB 161630Z 1618/1706 31007KT 8000 SCT035 TX37/1619Z TN26/1706Z BECMG 1622/1623 27005KT BECMG 1702/1704 01005KT FEW030 RMK PGB

Orai ataskaitas ir orų prognozės (METAR, TAF).

turimą stotys yra geltonos ir raudonos taškus žemėlapyje.

Perkelti pele per norėdami pamatyti stoties vardą.

Tada spustelėkite, norėdami matyti oro stebėjimo ir prognozės.

Norėdami pakeisti žemėlapį: spustelėkite ant žalios mygtukų su juodo kryžiaus žemyn,; žalią mygtuką su brūkšneliu, jei norite nutolinti; arba žalių rodyklių gretimoms žemėlapius.


METAR-TAF: